createdAt,value
2022-07-30T00:00:44.695Z,100.00
2022-07-30T00:03:15.257Z,100.00
2022-07-30T00:05:43.015Z,100.00
2022-07-30T00:08:13.069Z,100.00
2022-07-30T00:10:43.365Z,100.00
2022-07-30T00:13:18.055Z,100.00
2022-07-30T00:15:52.246Z,100.00
2022-07-30T00:18:23.543Z,100.00
2022-07-30T00:20:50.691Z,100.00
2022-07-30T00:23:21.958Z,100.00
2022-07-30T00:25:49.409Z,100.00
2022-07-30T00:28:17.011Z,100.00
2022-07-30T00:30:46.115Z,100.00
2022-07-30T00:33:16.444Z,100.00
2022-07-30T00:35:45.698Z,100.00
2022-07-30T00:38:14.256Z,100.00
2022-07-30T00:40:43.484Z,100.00
2022-07-30T00:43:17.311Z,100.00
2022-07-30T00:45:47.551Z,100.00
2022-07-30T00:48:15.788Z,100.00
2022-07-30T00:50:46.548Z,100.00
2022-07-30T00:53:21.646Z,100.00
2022-07-30T00:55:49.700Z,100.00
2022-07-30T00:58:17.817Z,100.00
2022-07-30T01:00:48.631Z,100.00
2022-07-30T01:03:16.259Z,100.00
2022-07-30T01:05:43.720Z,100.00
2022-07-30T01:08:11.743Z,100.00
2022-07-30T01:10:42.616Z,100.00
2022-07-30T01:13:10.511Z,100.00
2022-07-30T01:15:38.442Z,100.00
2022-07-30T01:18:11.280Z,100.00
2022-07-30T01:20:49.737Z,100.00
2022-07-30T01:23:36.088Z,100.00
2022-07-30T01:26:12.239Z,100.00
2022-07-30T01:28:45.898Z,100.00
2022-07-30T01:31:14.733Z,100.00
2022-07-30T01:33:47.105Z,100.00
2022-07-30T01:36:16.617Z,100.00
2022-07-30T01:38:46.736Z,100.00
2022-07-30T01:41:15.983Z,100.00
2022-07-30T01:43:50.693Z,100.00
2022-07-30T01:46:23.171Z,100.00
2022-07-30T01:48:57.070Z,100.00
2022-07-30T01:51:26.993Z,100.00
2022-07-30T01:54:02.047Z,100.00
2022-07-30T01:56:34.840Z,100.00
2022-07-30T01:59:09.049Z,100.00
2022-07-30T02:01:39.686Z,100.00
2022-07-30T02:04:07.051Z,100.00
2022-07-30T02:06:49.446Z,100.00
2022-07-30T02:09:25.530Z,100.00
2022-07-30T02:12:13.968Z,100.00
2022-07-30T02:14:52.442Z,100.00
2022-07-30T02:17:30.111Z,100.00
2022-07-30T02:20:00.800Z,100.00
2022-07-30T02:22:38.156Z,100.00
2022-07-30T02:27:54.880Z,100.00
2022-07-30T02:30:28.672Z,100.00
2022-07-30T02:33:05.737Z,100.00
2022-07-30T02:35:39.907Z,100.00
2022-07-30T02:38:10.904Z,100.00
2022-07-30T02:40:45.038Z,100.00
2022-07-30T02:43:15.178Z,100.00
2022-07-30T02:45:47.764Z,100.00
2022-07-30T02:48:34.185Z,100.00
2022-07-30T02:51:06.625Z,100.00
2022-07-30T02:53:38.793Z,100.00
2022-07-30T02:56:11.046Z,100.00
2022-07-30T02:58:44.164Z,100.00
2022-07-30T03:01:15.536Z,100.00
2022-07-30T03:03:46.553Z,100.00
2022-07-30T03:06:15.974Z,100.00
2022-07-30T03:08:45.239Z,100.00
2022-07-30T03:11:18.913Z,100.00
2022-07-30T03:13:46.839Z,100.00
2022-07-30T03:16:18.816Z,100.00
2022-07-30T03:18:54.963Z,100.00
2022-07-30T03:21:27.430Z,100.00
2022-07-30T03:23:58.054Z,100.00
2022-07-30T03:26:27.844Z,100.00
2022-07-30T03:28:59.992Z,100.00
2022-07-30T03:31:36.428Z,100.00
2022-07-30T03:34:07.600Z,100.00
2022-07-30T03:36:38.539Z,100.00
2022-07-30T03:39:15.070Z,100.00
2022-07-30T03:41:49.699Z,100.00
2022-07-30T03:44:19.203Z,100.00
2022-07-30T03:46:50.951Z,100.00
2022-07-30T03:49:21.025Z,100.00
2022-07-30T03:51:53.821Z,100.00
2022-07-30T03:54:21.568Z,100.00
2022-07-30T03:57:20.252Z,100.00
2022-07-30T03:59:51.634Z,100.00
2022-07-30T04:02:20.604Z,100.00
2022-07-30T04:05:17.272Z,100.00
2022-07-30T04:07:49.404Z,100.00
2022-07-30T04:10:20.049Z,100.00
2022-07-30T04:13:16.043Z,100.00
2022-07-30T04:16:39.382Z,100.00
2022-07-30T04:19:01.280Z,100.00
2022-07-30T04:21:32.118Z,100.00
2022-07-30T04:24:04.776Z,100.00
2022-07-30T04:26:36.467Z,100.00
2022-07-30T04:29:13.880Z,100.00
2022-07-30T04:31:47.900Z,100.00
2022-07-30T04:34:53.477Z,100.00
2022-07-30T04:37:39.665Z,100.00
2022-07-30T04:40:09.690Z,100.00
2022-07-30T04:42:42.417Z,100.00
2022-07-30T04:45:16.519Z,100.00
2022-07-30T04:47:55.813Z,100.00
2022-07-30T04:50:29.159Z,100.00
2022-07-30T04:52:58.310Z,100.00
2022-07-30T04:55:34.392Z,100.00
2022-07-30T04:58:02.647Z,100.00
2022-07-30T05:00:39.016Z,100.00
2022-07-30T05:03:12.922Z,100.00
2022-07-30T05:05:43.157Z,100.00
2022-07-30T05:08:15.970Z,100.00
2022-07-30T05:10:44.806Z,100.00
2022-07-30T05:13:16.292Z,100.00
2022-07-30T05:15:47.222Z,100.00
2022-07-30T05:18:21.664Z,100.00
2022-07-30T05:20:51.711Z,100.00
2022-07-30T05:23:31.249Z,100.00
2022-07-30T05:26:13.282Z,100.00
2022-07-30T05:28:45.017Z,100.00
2022-07-30T05:31:21.206Z,100.00
2022-07-30T05:33:59.174Z,100.00
2022-07-30T05:36:35.962Z,100.00
2022-07-30T05:39:03.822Z,100.00
2022-07-30T05:42:03.382Z,100.00
2022-07-30T05:44:45.019Z,100.00
2022-07-30T05:47:14.756Z,100.00
2022-07-30T05:49:47.358Z,100.00
2022-07-30T05:52:17.864Z,100.00
2022-07-30T05:54:45.661Z,100.00
2022-07-30T05:57:28.414Z,100.00
2022-07-30T05:59:55.630Z,100.00
2022-07-30T06:02:42.068Z,100.00
2022-07-30T06:05:18.276Z,100.00
2022-07-30T06:07:48.254Z,100.00
2022-07-30T06:10:18.048Z,100.00
2022-07-30T06:12:45.494Z,100.00
2022-07-30T06:15:15.675Z,100.00
2022-07-30T06:17:48.461Z,100.00
2022-07-30T06:20:36.797Z,100.00
2022-07-30T06:23:17.172Z,100.00
2022-07-30T06:26:11.499Z,100.00
2022-07-30T06:28:39.983Z,100.00
2022-07-30T06:31:38.262Z,100.00
2022-07-30T06:34:06.670Z,100.00
2022-07-30T06:36:38.398Z,100.00
2022-07-30T06:39:11.819Z,100.00
2022-07-30T06:42:07.880Z,100.00
2022-07-30T06:45:01.286Z,100.00
2022-07-30T06:47:41.700Z,100.00
2022-07-30T06:50:11.908Z,100.00
2022-07-30T06:52:40.489Z,100.00
2022-07-30T06:55:10.456Z,100.00
2022-07-30T06:57:46.965Z,100.00
2022-07-30T07:00:34.361Z,100.00
2022-07-30T07:03:09.995Z,100.00
2022-07-30T07:05:39.431Z,100.00
2022-07-30T07:08:09.268Z,100.00
2022-07-30T07:10:45.198Z,100.00
2022-07-30T07:13:23.692Z,100.00
2022-07-30T07:15:52.092Z,100.00
2022-07-30T07:18:22.080Z,100.00
2022-07-30T07:21:00.811Z,100.00
2022-07-30T07:23:41.448Z,100.00
2022-07-30T07:26:33.352Z,100.00
2022-07-30T07:29:05.089Z,100.00
2022-07-30T07:32:06.112Z,100.00
2022-07-30T07:34:21.680Z,100.00
2022-07-30T07:36:51.502Z,100.00
2022-07-30T07:39:18.810Z,100.00
2022-07-30T07:41:49.461Z,100.00
2022-07-30T07:44:23.504Z,100.00
2022-07-30T07:46:53.720Z,100.00
2022-07-30T07:49:26.898Z,100.00
2022-07-30T07:52:07.814Z,100.00
2022-07-30T07:54:42.328Z,100.00
2022-07-30T07:57:11.630Z,100.00
2022-07-30T07:59:42.769Z,100.00
2022-07-30T08:02:15.714Z,100.00
2022-07-30T08:05:07.634Z,100.00
2022-07-30T08:08:03.121Z,100.00
2022-07-30T08:10:56.624Z,100.00
2022-07-30T08:13:48.048Z,100.00
2022-07-30T08:16:35.941Z,100.00
2022-07-30T08:19:42.205Z,100.00
2022-07-30T08:22:17.581Z,100.00
2022-07-30T08:24:47.701Z,100.00
2022-07-30T08:27:14.901Z,100.00
2022-07-30T08:29:42.849Z,100.00
2022-07-30T08:32:15.633Z,100.00
2022-07-30T08:34:46.006Z,100.00
2022-07-30T08:37:16.094Z,100.00
2022-07-30T08:39:47.664Z,100.00
2022-07-30T08:42:18.437Z,100.00
2022-07-30T08:44:47.040Z,100.00
2022-07-30T08:47:19.637Z,100.00
2022-07-30T08:50:08.213Z,100.00
2022-07-30T08:52:39.592Z,100.00
2022-07-30T08:55:11.241Z,100.00
2022-07-30T08:57:44.889Z,100.00
2022-07-30T09:00:14.486Z,100.00
2022-07-30T09:02:50.296Z,100.00
2022-07-30T09:05:19.393Z,100.00
2022-07-30T09:07:50.375Z,100.00
2022-07-30T09:10:27.544Z,100.00
2022-07-30T09:12:58.910Z,100.00
2022-07-30T09:15:30.163Z,100.00
2022-07-30T09:18:00.730Z,100.00
2022-07-30T09:20:41.227Z,100.00
2022-07-30T09:23:16.287Z,100.00
2022-07-30T09:26:06.017Z,100.00
2022-07-30T09:28:57.242Z,100.00
2022-07-30T09:31:56.976Z,100.00
2022-07-30T09:34:45.545Z,100.00
2022-07-30T09:38:05.900Z,100.00
2022-07-30T09:41:12.337Z,100.00
2022-07-30T09:43:52.986Z,99.84
2022-07-30T09:46:48.236Z,98.77
2022-07-30T09:49:37.231Z,98.22
2022-07-30T09:52:06.894Z,97.99
2022-07-30T09:54:51.548Z,97.72
2022-07-30T09:57:27.899Z,97.29
2022-07-30T10:00:24.043Z,96.80
2022-07-30T10:03:34.437Z,96.80
2022-07-30T10:06:35.162Z,97.69
2022-07-30T10:09:24.039Z,98.81
2022-07-30T10:12:02.682Z,99.32
2022-07-30T10:14:42.412Z,100.00
2022-07-30T10:17:14.728Z,100.00
2022-07-30T10:19:49.003Z,100.00
2022-07-30T10:22:37.092Z,100.00
2022-07-30T10:25:31.590Z,100.00
2022-07-30T10:28:09.326Z,100.00
2022-07-30T10:30:36.980Z,100.00
2022-07-30T10:33:08.187Z,100.00
2022-07-30T10:35:38.443Z,100.00
2022-07-30T10:38:14.968Z,100.00
2022-07-30T10:40:55.444Z,100.00
2022-07-30T10:43:43.405Z,100.00
2022-07-30T10:46:27.186Z,100.00
2022-07-30T10:48:57.564Z,100.00
2022-07-30T10:51:43.606Z,100.00
2022-07-30T10:54:39.504Z,100.00
2022-07-30T10:57:31.886Z,100.00
2022-07-30T11:00:00.765Z,100.00
2022-07-30T11:02:30.716Z,100.00
2022-07-30T11:05:44.043Z,100.00
2022-07-30T11:08:31.985Z,100.00
2022-07-30T11:12:01.366Z,100.00
2022-07-30T11:14:14.911Z,100.00
2022-07-30T11:16:42.682Z,100.00
2022-07-30T11:19:56.662Z,100.00
2022-07-30T11:22:27.631Z,100.00
2022-07-30T11:24:57.776Z,100.00
2022-07-30T11:27:38.970Z,100.00
2022-07-30T11:30:18.803Z,100.00
2022-07-30T11:32:51.612Z,100.00
2022-07-30T11:35:23.526Z,100.00
2022-07-30T11:37:57.038Z,100.00
2022-07-30T11:40:26.233Z,100.00
2022-07-30T11:43:25.642Z,100.00
2022-07-30T11:46:28.755Z,100.00
2022-07-30T11:49:08.551Z,100.00
2022-07-30T11:51:44.731Z,100.00
2022-07-30T11:54:12.687Z,100.00
2022-07-30T11:56:59.546Z,100.00
2022-07-30T11:59:32.008Z,100.00
2022-07-30T12:02:01.928Z,100.00
2022-07-30T12:04:29.977Z,100.00
2022-07-30T12:06:58.432Z,100.00
2022-07-30T12:09:29.827Z,100.00
2022-07-30T12:11:57.301Z,100.00
2022-07-30T12:14:25.508Z,100.00
2022-07-30T12:16:54.141Z,100.00
2022-07-30T12:19:28.573Z,100.00
2022-07-30T12:22:00.286Z,100.00
2022-07-30T12:24:33.556Z,100.00
2022-07-30T12:27:05.708Z,100.00
2022-07-30T12:29:36.703Z,100.00
2022-07-30T12:32:07.297Z,100.00
2022-07-30T12:34:37.968Z,100.00
2022-07-30T12:37:10.060Z,100.00
2022-07-30T12:39:38.315Z,100.00
2022-07-30T12:42:17.656Z,100.00
2022-07-30T12:44:46.180Z,100.00
2022-07-30T12:47:35.430Z,100.00
2022-07-30T12:50:16.285Z,100.00
2022-07-30T12:52:59.102Z,100.00
2022-07-30T12:55:35.594Z,100.00
2022-07-30T12:58:08.628Z,100.00
2022-07-30T13:00:53.570Z,100.00
2022-07-30T13:03:29.065Z,100.00
2022-07-30T13:05:57.737Z,100.00
2022-07-30T13:08:50.756Z,100.00
2022-07-30T13:11:19.581Z,100.00
2022-07-30T13:13:47.826Z,100.00
2022-07-30T13:16:16.222Z,100.00
2022-07-30T13:18:44.101Z,100.00
2022-07-30T13:21:12.219Z,100.00
2022-07-30T13:23:43.115Z,100.00
2022-07-30T13:26:11.092Z,100.00
2022-07-30T13:28:38.796Z,100.00
2022-07-30T13:31:08.406Z,100.00
2022-07-30T13:33:37.180Z,100.00
2022-07-30T13:36:05.457Z,100.00
2022-07-30T13:38:36.365Z,100.00
2022-07-30T13:41:07.926Z,100.00
2022-07-30T13:43:35.806Z,100.00
2022-07-30T13:46:04.470Z,100.00
2022-07-30T13:48:32.807Z,100.00
2022-07-30T13:51:01.660Z,100.00
2022-07-30T13:53:29.755Z,100.00
2022-07-30T13:56:01.785Z,100.00
2022-07-30T13:58:32.928Z,100.00
2022-07-30T14:01:03.746Z,100.00
2022-07-30T14:03:31.254Z,100.00
2022-07-30T14:06:10.056Z,100.00
2022-07-30T14:08:39.379Z,100.00
2022-07-30T14:11:06.852Z,100.00
2022-07-30T14:13:34.254Z,100.00
2022-07-30T14:16:01.839Z,100.00
2022-07-30T14:18:30.197Z,100.00
2022-07-30T14:20:58.152Z,100.00
2022-07-30T14:23:26.356Z,100.00
2022-07-30T14:25:56.357Z,100.00
2022-07-30T14:28:23.806Z,100.00
2022-07-30T14:30:53.975Z,100.00
2022-07-30T14:33:23.903Z,100.00
2022-07-30T14:35:53.846Z,100.00
2022-07-30T14:38:21.023Z,100.00
2022-07-30T14:40:48.585Z,100.00
2022-07-30T14:43:17.916Z,100.00
2022-07-30T14:45:50.621Z,100.00
2022-07-30T14:48:17.963Z,100.00
2022-07-30T14:51:12.008Z,100.00
2022-07-30T14:53:35.243Z,100.00
2022-07-30T14:56:06.360Z,100.00
2022-07-30T14:58:33.744Z,100.00
2022-07-30T15:01:16.667Z,100.00
2022-07-30T15:03:45.429Z,100.00
2022-07-30T15:06:15.257Z,100.00
2022-07-30T15:08:48.401Z,100.00
2022-07-30T15:11:19.094Z,100.00
2022-07-30T15:13:51.770Z,100.00
2022-07-30T15:16:20.929Z,100.00
2022-07-30T15:18:48.270Z,100.00
2022-07-30T15:21:15.747Z,100.00
2022-07-30T15:23:43.202Z,100.00
2022-07-30T15:26:13.006Z,100.00
2022-07-30T15:28:40.229Z,100.00
2022-07-30T15:31:08.453Z,100.00
2022-07-30T15:33:37.305Z,100.00
2022-07-30T15:36:07.673Z,100.00
2022-07-30T15:38:35.329Z,100.00
2022-07-30T15:41:03.813Z,100.00
2022-07-30T15:43:32.232Z,100.00
2022-07-30T15:46:06.430Z,100.00
2022-07-30T15:48:40.356Z,100.00
2022-07-30T15:51:20.545Z,100.00
2022-07-30T15:53:48.947Z,100.00
2022-07-30T15:56:30.032Z,100.00
2022-07-30T15:59:15.404Z,100.00
2022-07-30T16:01:55.506Z,100.00
2022-07-30T16:04:31.962Z,100.00
2022-07-30T16:07:12.407Z,100.00
2022-07-30T16:09:43.967Z,100.00
2022-07-30T16:12:12.027Z,100.00
2022-07-30T16:14:52.587Z,100.00
2022-07-30T16:17:20.429Z,100.00
2022-07-30T16:19:55.414Z,100.00
2022-07-30T16:22:23.757Z,100.00
2022-07-30T16:24:52.574Z,100.00
2022-07-30T16:27:26.182Z,100.00
2022-07-30T16:29:56.386Z,100.00
2022-07-30T16:32:34.289Z,100.00
2022-07-30T16:35:02.874Z,100.00
2022-07-30T16:37:38.559Z,100.00
2022-07-30T16:40:09.443Z,100.00
2022-07-30T16:42:39.052Z,100.00
2022-07-30T16:45:07.136Z,100.00
2022-07-30T16:47:35.735Z,100.00
2022-07-30T16:50:06.429Z,100.00
2022-07-30T16:52:35.941Z,100.00
2022-07-30T16:55:06.035Z,100.00
2022-07-30T16:57:36.135Z,100.00
2022-07-30T17:00:06.884Z,100.00
2022-07-30T17:02:40.125Z,100.00
2022-07-30T17:05:11.987Z,100.00
2022-07-30T17:07:46.681Z,100.00
2022-07-30T17:10:13.985Z,100.00
2022-07-30T17:12:50.796Z,100.00
2022-07-30T17:15:31.863Z,100.00
2022-07-30T17:18:02.591Z,100.00
2022-07-30T17:20:32.595Z,100.00
2022-07-30T17:23:00.099Z,100.00
2022-07-30T17:25:27.963Z,100.00
2022-07-30T17:28:00.742Z,100.00
2022-07-30T17:30:31.695Z,100.00
2022-07-30T17:32:59.976Z,100.00
2022-07-30T17:35:30.331Z,100.00
2022-07-30T17:38:01.597Z,100.00
2022-07-30T17:40:32.157Z,100.00
2022-07-30T17:43:04.512Z,100.00
2022-07-30T17:45:34.346Z,100.00
2022-07-30T17:48:02.708Z,100.00
2022-07-30T17:50:32.160Z,100.00
2022-07-30T17:53:03.251Z,100.00
2022-07-30T17:55:34.759Z,100.00
2022-07-30T17:58:04.895Z,100.00
2022-07-30T18:00:36.534Z,100.00
2022-07-30T18:03:13.509Z,100.00
2022-07-30T18:05:40.982Z,100.00
2022-07-30T18:08:14.015Z,100.00
2022-07-30T18:10:41.892Z,100.00
2022-07-30T18:13:27.103Z,100.00
2022-07-30T18:15:57.966Z,100.00
2022-07-30T18:18:27.311Z,100.00
2022-07-30T18:21:04.982Z,100.00
2022-07-30T18:23:34.660Z,100.00
2022-07-30T18:26:04.775Z,100.00
2022-07-30T18:28:35.656Z,100.00
2022-07-30T18:31:08.359Z,100.00
2022-07-30T18:33:36.329Z,100.00
2022-07-30T18:36:11.334Z,100.00
2022-07-30T18:38:41.864Z,100.00
2022-07-30T18:41:14.508Z,100.00
2022-07-30T18:43:48.152Z,100.00
2022-07-30T18:46:16.196Z,100.00
2022-07-30T18:48:57.595Z,100.00
2022-07-30T18:51:25.469Z,100.00
2022-07-30T18:53:56.001Z,100.00
2022-07-30T18:56:25.341Z,100.00
2022-07-30T19:01:40.748Z,100.00
2022-07-30T19:04:12.567Z,100.00
2022-07-30T19:06:40.767Z,100.00
2022-07-30T19:09:17.693Z,100.00
2022-07-30T19:11:48.183Z,100.00
2022-07-30T19:14:17.223Z,100.00
2022-07-30T19:16:47.559Z,100.00
2022-07-30T19:19:24.141Z,100.00
2022-07-30T19:21:54.902Z,100.00
2022-07-30T19:24:28.154Z,100.00
2022-07-30T19:26:57.315Z,100.00
2022-07-30T19:29:25.034Z,100.00
2022-07-30T19:31:54.557Z,100.00
2022-07-30T19:34:27.944Z,100.00
2022-07-30T19:37:00.243Z,100.00
2022-07-30T19:39:27.577Z,100.00
2022-07-30T19:41:55.666Z,100.00
2022-07-30T19:44:24.361Z,100.00
2022-07-30T19:46:52.102Z,100.00
2022-07-30T19:49:30.841Z,100.00
2022-07-30T19:52:17.517Z,100.00
2022-07-30T19:54:52.182Z,100.00
2022-07-30T19:57:24.847Z,100.00
2022-07-30T20:00:14.042Z,100.00
2022-07-30T20:02:53.158Z,100.00
2022-07-30T20:05:24.807Z,100.00
2022-07-30T20:07:54.817Z,100.00
2022-07-30T20:10:26.958Z,100.00
2022-07-30T20:12:57.310Z,100.00
2022-07-30T20:15:27.171Z,100.00
2022-07-30T20:20:51.028Z,100.00
2022-07-30T20:23:24.830Z,100.00
2022-07-30T20:25:58.802Z,100.00
2022-07-30T20:28:31.971Z,100.00
2022-07-30T20:31:00.680Z,100.00
2022-07-30T20:33:36.103Z,100.00
2022-07-30T20:36:12.874Z,100.00
2022-07-30T20:38:49.707Z,100.00
2022-07-30T20:41:17.074Z,100.00
2022-07-30T20:43:55.376Z,100.00
2022-07-30T20:46:25.968Z,100.00
2022-07-30T20:49:01.878Z,100.00
2022-07-30T20:51:33.478Z,100.00
2022-07-30T20:54:21.174Z,100.00
2022-07-30T20:56:52.657Z,100.00
2022-07-30T21:02:07.619Z,100.00
2022-07-30T21:04:46.331Z,100.00
2022-07-30T21:07:14.058Z,100.00
2022-07-30T21:09:49.784Z,100.00
2022-07-30T21:12:32.597Z,100.00
2022-07-30T21:15:01.075Z,100.00
2022-07-30T21:17:30.366Z,100.00
2022-07-30T21:19:57.801Z,100.00
2022-07-30T21:22:25.165Z,100.00
2022-07-30T21:24:52.955Z,100.00
2022-07-30T21:27:20.870Z,100.00
2022-07-30T21:29:55.915Z,100.00
2022-07-30T21:32:26.663Z,100.00
2022-07-30T21:34:54.637Z,100.00
2022-07-30T21:37:36.531Z,100.00
2022-07-30T21:40:05.212Z,100.00
2022-07-30T21:42:34.101Z,100.00
2022-07-30T21:45:02.110Z,100.00
2022-07-30T21:47:37.639Z,100.00
2022-07-30T21:50:40.323Z,100.00
2022-07-30T21:53:08.529Z,100.00
2022-07-30T21:55:53.192Z,100.00
2022-07-30T21:58:26.338Z,100.00
2022-07-30T22:00:58.243Z,100.00
2022-07-30T22:04:03.494Z,100.00
2022-07-30T22:06:19.579Z,100.00
2022-07-30T22:08:51.786Z,100.00
2022-07-30T22:11:23.095Z,100.00
2022-07-30T22:13:51.325Z,100.00
2022-07-30T22:16:23.906Z,100.00
2022-07-30T22:18:56.016Z,100.00
2022-07-30T22:21:30.993Z,100.00
2022-07-30T22:24:04.031Z,100.00
2022-07-30T22:26:31.573Z,100.00
2022-07-30T22:28:59.257Z,100.00
2022-07-30T22:31:39.339Z,100.00
2022-07-30T22:34:11.328Z,100.00
2022-07-30T22:36:40.496Z,100.00
2022-07-30T22:39:10.860Z,100.00
2022-07-30T22:41:44.037Z,100.00
2022-07-30T22:44:16.123Z,100.00
2022-07-30T22:46:43.989Z,100.00
2022-07-30T22:49:23.445Z,100.00
2022-07-30T22:52:01.942Z,100.00
2022-07-30T22:54:37.105Z,100.00
2022-07-30T22:57:05.012Z,100.00
2022-07-30T22:59:58.104Z,100.00
2022-07-30T23:02:28.339Z,100.00
2022-07-30T23:04:58.224Z,100.00
2022-07-30T23:07:35.993Z,100.00
2022-07-30T23:10:17.106Z,100.00
2022-07-30T23:12:16.424Z,100.00
2022-07-30T23:12:52.827Z,100.00
2022-07-30T23:15:22.652Z,100.00
2022-07-30T23:17:49.785Z,100.00
2022-07-30T23:20:27.009Z,100.00
2022-07-30T23:22:56.706Z,100.00
2022-07-30T23:25:38.795Z,100.00
2022-07-30T23:28:09.030Z,100.00
2022-07-30T23:30:38.878Z,100.00
2022-07-30T23:33:08.645Z,100.00
2022-07-30T23:35:35.984Z,100.00
2022-07-30T23:38:05.933Z,100.00
2022-07-30T23:40:39.006Z,100.00
2022-07-30T23:43:06.531Z,100.00
2022-07-30T23:45:37.006Z,100.00
2022-07-30T23:48:05.735Z,100.00
2022-07-30T23:50:36.115Z,100.00
2022-07-30T23:53:08.460Z,100.00
2022-07-30T23:55:37.984Z,100.00
2022-07-30T23:58:09.068Z,100.00
